createdAt,value
2023-07-27T00:00:13.877Z,53
2023-07-27T00:05:15.826Z,53
2023-07-27T00:10:21.736Z,53
2023-07-27T00:15:18.983Z,53
2023-07-27T00:20:14.009Z,53
2023-07-27T00:25:15.705Z,53
2023-07-27T00:30:20.819Z,53
2023-07-27T00:35:19.662Z,53
2023-07-27T00:40:22.886Z,53
2023-07-27T00:45:18.061Z,53
2023-07-27T00:50:16.131Z,53
2023-07-27T00:55:16.066Z,53
2023-07-27T01:00:20.141Z,53
2023-07-27T01:05:18.371Z,53
2023-07-27T01:10:23.286Z,53
2023-07-27T01:15:16.168Z,53
2023-07-27T01:20:16.046Z,53
2023-07-27T01:25:16.065Z,53
2023-07-27T01:30:18.234Z,53
2023-07-27T01:35:16.259Z,51
2023-07-27T01:40:24.205Z,53
2023-07-27T01:45:22.041Z,51
2023-07-27T01:50:21.910Z,53
2023-07-27T01:55:13.885Z,53
2023-07-27T02:00:18.048Z,53
2023-07-27T02:05:17.445Z,53
2023-07-27T02:10:14.310Z,53
2023-07-27T02:15:20.332Z,53
2023-07-27T02:20:20.218Z,51
2023-07-27T02:25:18.134Z,53
2023-07-27T02:30:16.335Z,53
2023-07-27T02:35:16.126Z,53
2023-07-27T02:40:16.100Z,53
2023-07-27T02:45:13.940Z,53
2023-07-27T02:50:18.381Z,53
2023-07-27T02:55:18.608Z,52
2023-07-27T03:00:18.462Z,53
2023-07-27T03:05:14.448Z,52
2023-07-27T03:10:18.825Z,52
2023-07-27T03:15:21.673Z,52
2023-07-27T03:20:16.495Z,52
2023-07-27T03:25:14.282Z,53
2023-07-27T03:30:18.284Z,52
2023-07-27T03:35:16.187Z,53
2023-07-27T03:40:17.948Z,51
2023-07-27T03:45:13.757Z,52
2023-07-27T03:50:22.755Z,53
2023-07-27T03:55:14.560Z,53
2023-07-27T04:00:14.463Z,53
2023-07-27T04:05:18.438Z,53
2023-07-27T04:10:16.424Z,53
2023-07-27T04:15:16.624Z,52
2023-07-27T04:20:18.685Z,53
2023-07-27T04:25:19.234Z,53
2023-07-27T04:30:18.096Z,53
2023-07-27T04:35:14.090Z,53
2023-07-27T04:40:16.587Z,53
2023-07-27T04:45:14.606Z,53
2023-07-27T04:50:14.727Z,53
2023-07-27T04:55:16.647Z,53
2023-07-27T05:00:16.565Z,53
2023-07-27T05:05:17.984Z,53
2023-07-27T05:10:19.908Z,52
2023-07-27T05:15:13.819Z,53
2023-07-27T05:20:15.801Z,54
2023-07-27T05:25:20.451Z,55
2023-07-27T05:30:16.845Z,55
2023-07-27T05:35:13.855Z,55
2023-07-27T05:40:17.794Z,55
2023-07-27T05:45:13.776Z,55
2023-07-27T05:50:17.697Z,54
2023-07-27T05:55:20.644Z,53
2023-07-27T06:00:23.380Z,54
2023-07-27T06:05:26.496Z,54
2023-07-27T06:10:16.545Z,54
2023-07-27T06:15:18.620Z,54
2023-07-27T06:20:17.089Z,54
2023-07-27T06:25:16.221Z,54
2023-07-27T06:30:19.004Z,54
2023-07-27T06:35:18.345Z,55
2023-07-27T06:40:16.470Z,54
2023-07-27T06:45:16.385Z,54
2023-07-27T06:50:20.330Z,54
2023-07-27T06:55:14.476Z,55
2023-07-27T07:00:19.705Z,55
2023-07-27T07:05:19.337Z,56
2023-07-27T07:10:14.273Z,56
2023-07-27T07:15:20.362Z,57
2023-07-27T07:20:16.790Z,57
2023-07-27T07:25:21.084Z,58
2023-07-27T07:30:18.012Z,57
2023-07-27T07:35:19.949Z,57
2023-07-27T07:40:22.282Z,57
2023-07-27T07:45:14.306Z,57
2023-07-27T07:50:16.116Z,57
2023-07-27T07:55:13.952Z,57
2023-07-27T08:00:17.999Z,57
2023-07-27T08:05:14.109Z,56
2023-07-27T08:10:15.943Z,56
2023-07-27T08:15:22.041Z,57
2023-07-27T08:20:30.175Z,57
2023-07-27T08:25:40.322Z,56
2023-07-27T08:30:16.338Z,56
2023-07-27T08:35:16.272Z,56
2023-07-27T08:40:22.252Z,56
2023-07-27T08:45:16.114Z,56
2023-07-27T08:50:20.106Z,55
2023-07-27T08:55:14.279Z,56
2023-07-27T09:00:14.206Z,56
2023-07-27T09:05:16.551Z,56
2023-07-27T09:10:18.366Z,56
2023-07-27T09:15:18.489Z,56
2023-07-27T09:20:20.520Z,56
2023-07-27T09:25:22.484Z,56
2023-07-27T09:30:18.560Z,56
2023-07-27T09:35:21.741Z,56
2023-07-27T09:40:15.716Z,56
2023-07-27T09:45:18.554Z,56
2023-07-27T09:50:16.445Z,56
2023-07-27T09:55:16.313Z,56
2023-07-27T10:00:18.393Z,56
2023-07-27T10:05:17.820Z,56
2023-07-27T10:10:21.981Z,56
2023-07-27T10:15:18.454Z,55
2023-07-27T10:20:25.053Z,55
2023-07-27T10:25:16.364Z,56
2023-07-27T10:30:18.436Z,54
2023-07-27T10:35:14.608Z,56
2023-07-27T10:40:14.604Z,56
2023-07-27T10:45:14.503Z,55
2023-07-27T10:50:16.307Z,55
2023-07-27T10:55:16.852Z,54
2023-07-27T11:00:16.163Z,55
2023-07-27T11:05:20.226Z,55
2023-07-27T11:10:18.294Z,55
2023-07-27T11:15:24.490Z,55
2023-07-27T11:20:18.769Z,55
2023-07-27T11:25:16.102Z,55
2023-07-27T11:30:20.169Z,55
2023-07-27T11:35:15.970Z,55
2023-07-27T11:40:14.114Z,55
2023-07-27T11:45:16.132Z,55
2023-07-27T11:50:20.411Z,55
2023-07-27T11:55:20.586Z,55
2023-07-27T12:00:16.481Z,55
2023-07-27T12:05:18.820Z,55
2023-07-27T12:15:14.680Z,54
2023-07-27T12:30:33.305Z,55
2023-07-27T12:45:16.461Z,55
2023-07-27T12:50:17.622Z,55
2023-07-27T12:55:17.832Z,55
2023-07-27T13:00:14.083Z,55
2023-07-27T13:05:14.348Z,55
2023-07-27T13:10:18.427Z,55
2023-07-27T13:15:14.486Z,55
2023-07-27T13:20:18.549Z,55
2023-07-27T13:25:20.574Z,55
2023-07-27T13:30:22.437Z,55
2023-07-27T13:35:21.437Z,55
2023-07-27T13:40:20.299Z,55
2023-07-27T13:45:14.105Z,55
2023-07-27T13:50:14.192Z,55
2023-07-27T13:55:16.289Z,55
2023-07-27T14:00:14.862Z,55
2023-07-27T14:05:13.762Z,55
2023-07-27T14:10:17.110Z,55
2023-07-27T14:15:20.099Z,55
2023-07-27T14:20:18.873Z,55
2023-07-27T14:25:17.703Z,55
2023-07-27T14:30:21.726Z,55
2023-07-27T14:35:18.527Z,55
2023-07-27T14:45:14.530Z,55
2023-07-27T14:50:14.373Z,55
2023-07-27T14:55:18.801Z,55
2023-07-27T15:00:36.481Z,54
2023-07-27T15:05:17.410Z,55
2023-07-27T15:15:19.782Z,55
2023-07-27T15:20:15.872Z,55
2023-07-27T15:25:17.757Z,55
2023-07-27T15:30:16.636Z,55
2023-07-27T15:35:18.842Z,55
2023-07-27T15:40:13.610Z,55
2023-07-27T15:45:14.403Z,55
2023-07-27T15:50:16.556Z,55
2023-07-27T15:55:16.348Z,55
2023-07-27T16:00:14.305Z,55
2023-07-27T16:05:14.349Z,55
2023-07-27T16:10:14.150Z,54
2023-07-27T16:15:17.978Z,55
2023-07-27T16:20:13.748Z,55
2023-07-27T16:25:14.765Z,55
2023-07-27T16:30:16.825Z,54
2023-07-27T16:35:17.615Z,55
2023-07-27T16:40:16.625Z,55
2023-07-27T16:45:21.274Z,54
2023-07-27T16:50:16.077Z,54
2023-07-27T16:55:14.420Z,56
2023-07-27T17:00:14.467Z,56
2023-07-27T17:05:13.786Z,56
2023-07-27T17:10:18.923Z,55
2023-07-27T17:15:13.844Z,55
2023-07-27T17:20:18.225Z,56
2023-07-27T17:25:22.158Z,55
2023-07-27T17:30:16.075Z,55
2023-07-27T17:35:16.150Z,55
2023-07-27T17:40:23.026Z,56
2023-07-27T17:45:20.171Z,56
2023-07-27T17:50:16.101Z,56
2023-07-27T17:55:23.594Z,55
2023-07-27T18:00:14.698Z,56
2023-07-27T18:05:14.168Z,56
2023-07-27T18:10:16.157Z,56
2023-07-27T18:15:16.096Z,56
2023-07-27T18:20:18.064Z,56
2023-07-27T18:25:17.832Z,55
2023-07-27T18:30:19.668Z,56
2023-07-27T18:35:18.596Z,56
2023-07-27T18:40:18.358Z,56
2023-07-27T18:45:14.308Z,56
2023-07-27T18:50:14.332Z,56
2023-07-27T18:55:22.180Z,55
2023-07-27T19:00:14.254Z,56
2023-07-27T19:05:14.475Z,56
2023-07-27T19:10:20.690Z,56
2023-07-27T19:15:16.649Z,56
2023-07-27T19:20:14.712Z,56
2023-07-27T19:25:18.998Z,56
2023-07-27T19:30:18.114Z,56
2023-07-27T19:35:16.174Z,57
2023-07-27T19:40:18.017Z,57
2023-07-27T19:45:14.136Z,56
2023-07-27T19:50:22.103Z,57
2023-07-27T19:55:15.972Z,57
2023-07-27T20:00:20.118Z,57
2023-07-27T20:05:14.119Z,57
2023-07-27T20:10:20.184Z,57
2023-07-27T20:15:16.492Z,57
2023-07-27T20:20:16.331Z,57
2023-07-27T20:25:16.348Z,57
2023-07-27T20:30:16.536Z,57
2023-07-27T20:35:16.322Z,57
2023-07-27T20:40:14.427Z,57
2023-07-27T20:45:16.483Z,57
2023-07-27T20:50:14.207Z,57
2023-07-27T20:55:14.146Z,57
2023-07-27T21:00:18.051Z,57
2023-07-27T21:05:16.224Z,57
2023-07-27T21:10:18.417Z,57
2023-07-27T21:15:16.387Z,57
2023-07-27T21:20:18.339Z,57
2023-07-27T21:25:18.979Z,57
2023-07-27T21:30:18.453Z,57
2023-07-27T21:35:16.238Z,57
2023-07-27T21:40:26.016Z,57
2023-07-27T21:45:15.918Z,58
2023-07-27T21:50:22.862Z,57
2023-07-27T21:55:20.141Z,58
2023-07-27T22:00:14.136Z,58
2023-07-27T22:05:16.030Z,57
2023-07-27T22:10:14.145Z,57
2023-07-27T22:15:14.007Z,57
2023-07-27T22:20:14.125Z,57
2023-07-27T22:25:18.076Z,56
2023-07-27T22:30:14.359Z,57
2023-07-27T22:35:14.312Z,57
2023-07-27T22:40:16.140Z,57
2023-07-27T22:45:16.198Z,57
2023-07-27T22:50:20.107Z,56
2023-07-27T22:55:16.120Z,57
2023-07-27T23:00:14.241Z,56
2023-07-27T23:05:16.116Z,56
2023-07-27T23:10:16.028Z,56
2023-07-27T23:15:19.189Z,56
2023-07-27T23:20:16.238Z,56
2023-07-27T23:25:18.226Z,56
2023-07-27T23:30:14.703Z,56
2023-07-27T23:35:14.691Z,56
2023-07-27T23:40:16.672Z,56
2023-07-27T23:45:16.632Z,56
2023-07-27T23:50:18.808Z,56
2023-07-27T23:55:15.731Z,56
